Time;durP1;ratioP1;P1;durP2;ratioP2;P2;SDS_P1;SDS_P2;PMS_P1;PMS_P2;Temp;Humidity;BMP_temperature;BMP_pressure;BME280_temperature;BME280_humidity;BME280_pressure;Samples;Min_cycle;Max_cycle;Signal;HPM_P1;HPM_P2
2023/10/08 00:00:49;;;;;;;8.43;4.60;;;410.40;2355.20;;;;;;4963456;28;20031;-79
2023/10/08 00:03:20;;;;;;;8.60;4.47;;;410.40;2355.20;;;;;;4980046;28;20030;-81
2023/10/08 00:06:27;;;;;;;9.35;4.50;;;410.50;2355.20;;;;;;4975400;28;20038;-80
2023/10/08 00:08:59;;;;;;;8.27;4.50;;;410.50;2355.20;;;;;;4995914;28;20432;-80
2023/10/08 00:11:29;;;;;;;9.18;4.10;;;410.50;2355.20;;;;;;4999093;28;20181;-80
2023/10/08 00:13:56;;;;;;;7.07;4.07;;;410.50;2355.20;;;;;;5002326;28;20477;-80
2023/10/08 00:16:22;;;;;;;7.18;4.07;;;435.20;2355.20;;;;;;4995732;28;20084;-79
2023/10/08 00:18:51;;;;;;;8.48;4.10;;;435.20;2355.20;;;;;;5007616;28;20022;-81
2023/10/08 00:21:33;;;;;;;8.77;4.25;;;435.30;2355.20;;;;;;4992196;28;20113;-79
2023/10/08 00:23:58;;;;;;;10.20;5.00;;;435.30;2355.20;;;;;;4980662;28;20034;-79
2023/10/08 00:26:27;;;;;;;8.18;4.07;;;435.40;2355.20;;;;;;4994640;28;20026;-80
2023/10/08 00:29:06;;;;;;;9.73;3.90;;;435.40;2355.20;;;;;;5000074;28;20034;-79
2023/10/08 00:31:40;;;;;;;10.43;4.40;;;435.40;2355.20;;;;;;5016530;28;20099;-79
2023/10/08 00:34:08;;;;;;;10.18;4.40;;;435.40;2355.20;;;;;;4991558;28;20544;-79
2023/10/08 00:36:34;;;;;;;8.88;4.30;;;435.40;2355.20;;;;;;4977856;28;20081;-80
2023/10/08 00:39:00;;;;;;;9.27;4.30;;;435.40;2355.20;;;;;;4996073;28;20076;-80
2023/10/08 00:41:31;;;;;;;9.18;4.35;;;435.30;2355.20;;;;;;4995905;28;20041;-79
2023/10/08 00:43:59;;;;;;;9.00;4.40;;;435.20;2355.20;;;;;;4996698;28;20026;-78
2023/10/08 00:46:32;;;;;;;8.90;4.70;;;435.20;2355.20;;;;;;4996319;28;20481;-82
2023/10/08 00:52:45;;;;;;;9.38;4.97;;;410.50;2355.20;;;;;;4977558;28;20101;-80
2023/10/08 00:55:20;;;;;;;7.03;3.83;;;410.50;2355.20;;;;;;4984456;28;20085;-83
2023/10/08 00:57:49;;;;;;;9.68;4.38;;;410.50;2355.20;;;;;;5006662;28;20030;-80
2023/10/08 01:00:21;;;;;;;10.70;4.28;;;410.50;2355.20;;;;;;4998345;28;20109;-80
2023/10/08 01:02:49;;;;;;;8.13;4.00;;;410.50;2355.20;;;;;;4996847;28;20042;-77
2023/10/08 01:05:42;;;;;;;10.32;4.55;;;410.50;2355.20;;;;;;4980595;28;20023;-81
2023/10/08 01:08:12;;;;;;;11.73;4.45;;;410.50;2355.20;;;;;;4996769;28;20139;-80
2023/10/08 01:10:43;;;;;;;10.95;4.35;;;435.20;2355.20;;;;;;4996220;28;20038;-81
2023/10/08 01:13:15;;;;;;;8.90;4.45;;;435.20;2355.20;;;;;;4989573;28;20027;-82
2023/10/08 01:15:44;;;;;;;10.15;4.63;;;410.50;2355.20;;;;;;4994422;28;20026;-85
2023/10/08 01:18:17;;;;;;;8.70;4.57;;;410.50;2355.20;;;;;;4996378;28;20018;-82
2023/10/08 01:20:53;;;;;;;8.43;4.55;;;410.50;2355.20;;;;;;4996238;28;20215;-80
2023/10/08 01:23:26;;;;;;;9.20;4.70;;;410.50;2355.20;;;;;;4993183;28;20028;-79
2023/10/08 01:25:52;;;;;;;8.20;4.20;;;410.50;2355.20;;;;;;4996097;28;20468;-82
2023/10/08 01:28:29;;;;;;;9.55;4.60;;;410.40;2355.20;;;;;;4978861;28;20026;-85
2023/10/08 01:31:03;;;;;;;12.07;5.28;;;410.40;2355.20;;;;;;4976802;28;20477;-83
2023/10/08 01:33:37;;;;;;;10.50;4.68;;;410.40;2355.20;;;;;;4977035;28;20022;-83
2023/10/08 01:36:04;;;;;;;8.07;4.45;;;410.40;2355.20;;;;;;4983332;28;20045;-83
2023/10/08 01:38:32;;;;;;;10.95;4.72;;;410.40;2355.20;;;;;;4978528;28;20030;-82
2023/10/08 01:41:03;;;;;;;8.45;4.53;;;410.40;2355.20;;;;;;4995925;28;20030;-84
2023/10/08 01:43:29;;;;;;;9.65;4.38;;;410.40;2355.20;;;;;;4996299;28;20101;-84
2023/10/08 01:45:58;;;;;;;8.20;4.57;;;410.40;2355.20;;;;;;4995511;28;20010;-83
2023/10/08 01:48:28;;;;;;;10.50;4.63;;;410.40;2355.20;;;;;;4992607;28;20372;-81
2023/10/08 01:51:46;;;;;;;9.48;4.40;;;410.40;2355.20;;;;;;5071664;28;20792;-83
2023/10/08 01:54:14;;;;;;;10.27;5.20;;;410.50;2355.20;;;;;;5072038;28;20024;-85
2023/10/08 01:56:41;;;;;;;8.77;5.03;;;410.40;2355.20;;;;;;5071374;28;20242;-80
2023/10/08 01:59:15;;;;;;;8.50;4.88;;;410.40;2355.20;;;;;;5069940;28;20032;-81
2023/10/08 02:01:42;;;;;;;11.27;5.00;;;435.50;2355.20;;;;;;5061755;28;20471;-84
2023/10/08 02:04:11;;;;;;;9.82;4.85;;;410.40;2355.20;;;;;;5056497;28;20024;-83
2023/10/08 02:07:16;;;;;;;10.77;4.78;;;435.30;2355.20;;;;;;5071382;28;20028;-83
2023/10/08 02:09:41;;;;;;;10.60;4.60;;;410.40;2355.20;;;;;;5071693;28;20124;-84
2023/10/08 02:12:08;;;;;;;14.32;5.75;;;410.40;2355.20;;;;;;5071088;28;20056;-82
2023/10/08 02:14:35;;;;;;;11.48;5.22;;;410.40;2355.20;;;;;;5071551;28;20060;-83
2023/10/08 02:17:06;;;;;;;11.23;5.40;;;410.40;2355.20;;;;;;5071084;28;20017;-83
2023/10/08 02:19:37;;;;;;;13.30;5.63;;;410.40;2355.20;;;;;;5062514;28;20085;-81
2023/10/08 02:22:09;;;;;;;10.90;5.53;;;410.40;2355.20;;;;;;5065243;28;20024;-80
2023/10/08 02:24:35;;;;;;;14.93;5.38;;;410.30;2355.20;;;;;;5071058;28;20028;-80
2023/10/08 02:27:01;;;;;;;10.95;5.50;;;410.20;2355.20;;;;;;5070480;28;20032;-81
2023/10/08 02:29:29;;;;;;;12.63;5.30;;;410.20;2355.20;;;;;;5071410;28;20033;-81
2023/10/08 02:31:58;;;;;;;13.15;6.00;;;410.20;2355.20;;;;;;5079956;28;20029;-80
2023/10/08 02:37:47;;;;;;;11.57;5.05;;;410.10;2355.20;;;;;;5059820;28;20091;-80
2023/10/08 02:40:25;;;;;;;12.48;5.68;;;410.10;2355.20;;;;;;5060146;28;20502;-80
2023/10/08 02:42:57;;;;;;;12.38;5.25;;;410.10;2355.20;;;;;;5069109;28;20032;-80
2023/10/08 02:45:27;;;;;;;10.98;5.13;;;410.10;2355.20;;;;;;5061721;28;20036;-80
2023/10/08 02:47:54;;;;;;;10.68;5.40;;;410.00;2355.20;;;;;;5057384;28;20021;-80
2023/10/08 02:50:22;;;;;;;11.63;5.40;;;410.00;2355.20;;;;;;5055446;28;20060;-78
2023/10/08 02:52:49;;;;;;;10.90;4.93;;;410.00;2355.20;;;;;;5074354;28;20466;-78
2023/10/08 02:55:33;;;;;;;11.38;5.30;;;410.00;2355.20;;;;;;5073385;28;20116;-79
2023/10/08 02:58:02;;;;;;;10.50;5.07;;;409.90;2355.20;;;;;;5074976;28;20017;-78
2023/10/08 03:00:34;;;;;;;11.30;4.85;;;409.90;2355.20;;;;;;5072155;28;20055;-80
2023/10/08 03:03:02;;;;;;;10.80;5.05;;;410.00;2355.20;;;;;;5063863;28;20063;-79
2023/10/08 03:05:35;;;;;;;10.93;4.68;;;410.00;2355.20;;;;;;5070146;28;20044;-79
2023/10/08 03:08:02;;;;;;;9.02;4.70;;;410.00;2355.20;;;;;;5073341;28;20406;-79
2023/10/08 03:10:33;;;;;;;8.20;4.80;;;410.00;2355.20;;;;;;5073032;28;20040;-80
2023/10/08 03:13:04;;;;;;;10.63;4.70;;;410.00;2355.20;;;;;;5053454;28;20028;-81
2023/10/08 03:15:37;;;;;;;8.73;4.43;;;410.00;2355.20;;;;;;5050658;28;20475;-79
2023/10/08 03:18:15;;;;;;;9.90;4.70;;;410.00;2355.20;;;;;;5071682;28;20093;-81
2023/10/08 03:24:12;;;;;;;9.60;4.90;;;410.00;2355.20;;;;;;5071837;28;20051;-79
2023/10/08 03:26:39;;;;;;;8.50;4.50;;;410.20;2355.20;;;;;;5071856;28;20036;-81
2023/10/08 03:29:14;;;;;;;9.43;4.75;;;410.10;2355.20;;;;;;5073381;28;20044;-80
2023/10/08 03:34:27;;;;;;;9.55;4.10;;;410.10;2355.20;;;;;;5063804;28;19905;-81
2023/10/08 03:37:19;;;;;;;11.63;4.88;;;410.10;2355.20;;;;;;5070788;28;20044;-79
2023/10/08 03:39:52;;;;;;;9.35;4.30;;;410.10;2355.20;;;;;;5070056;28;20032;-79
2023/10/08 03:42:22;;;;;;;10.93;4.28;;;410.10;2355.20;;;;;;5070228;28;20062;-80
2023/10/08 03:44:52;;;;;;;7.85;4.25;;;410.10;2355.20;;;;;;5060280;28;20029;-78
2023/10/08 03:47:26;;;;;;;8.15;4.38;;;410.10;2355.20;;;;;;5059714;28;20542;-79
2023/10/08 03:49:54;;;;;;;8.70;4.20;;;410.10;2355.20;;;;;;5059598;28;20187;-79
2023/10/08 03:52:25;;;;;;;11.45;4.43;;;410.20;2355.20;;;;;;5062642;28;20032;-79
2023/10/08 03:55:07;;;;;;;8.13;3.70;;;410.30;2355.20;;;;;;5062286;28;20032;-80
2023/10/08 03:57:42;;;;;;;9.48;4.03;;;410.40;2355.20;;;;;;5058964;28;20021;-80
2023/10/08 04:00:31;;;;;;;10.85;4.10;;;410.40;2355.20;;;;;;5059596;28;20482;-80
2023/10/08 04:03:01;;;;;;;8.38;4.00;;;410.40;2355.20;;;;;;5057611;28;20083;-80
2023/10/08 04:05:27;;;;;;;9.48;4.05;;;410.40;2355.20;;;;;;5054244;28;20524;-79
2023/10/08 04:13:08;;;;;;;6.88;3.80;;;410.30;2355.20;;;;;;5036762;28;20025;-77
2023/10/08 04:15:35;;;;;;;7.63;4.13;;;410.30;2355.20;;;;;;5044567;28;20463;-78
2023/10/08 04:18:04;;;;;;;8.63;3.97;;;410.20;2355.20;;;;;;5045574;28;20029;-78
2023/10/08 04:20:33;;;;;;;8.55;4.00;;;410.20;2355.20;;;;;;5050810;28;20038;-78
2023/10/08 04:23:13;;;;;;;10.90;4.22;;;410.20;2355.20;;;;;;5056005;28;20025;-78
2023/10/08 04:25:41;;;;;;;8.82;4.45;;;410.20;2355.20;;;;;;5054403;28;20112;-77
2023/10/08 04:28:13;;;;;;;9.32;4.60;;;410.20;2355.20;;;;;;5062652;28;20028;-80
2023/10/08 04:30:41;;;;;;;6.93;3.97;;;410.10;2355.20;;;;;;5060284;28;20033;-77
2023/10/08 04:33:11;;;;;;;9.60;4.32;;;410.10;2355.20;;;;;;5044569;28;20043;-79
2023/10/08 04:36:01;;;;;;;9.55;4.03;;;410.10;2355.20;;;;;;5045575;28;20028;-78
2023/10/08 04:38:26;;;;;;;6.95;4.00;;;410.10;2355.20;;;;;;5059007;28;20025;-79
2023/10/08 04:40:52;;;;;;;9.00;4.15;;;410.10;2355.20;;;;;;5057580;28;20119;-79
2023/10/08 04:43:27;;;;;;;10.50;4.47;;;409.90;2355.20;;;;;;5059368;28;20047;-79
2023/10/08 04:46:06;;;;;;;;;;;410.10;2355.20;;;;;;5060287;28;20023;-80
2023/10/08 04:48:33;;;;;;;10.82;4.03;;;410.10;2355.20;;;;;;5060191;28;19927;-77
2023/10/08 04:51:43;;;;;;;9.40;4.20;;;410.00;2355.20;;;;;;5058715;28;20080;-78
2023/10/08 04:54:16;;;;;;;8.57;4.18;;;410.00;2355.20;;;;;;5058690;28;20476;-78
2023/10/08 04:56:42;;;;;;;7.55;4.05;;;410.10;2355.20;;;;;;5058909;28;20017;-77
2023/10/08 04:59:11;;;;;;;6.78;3.90;;;410.10;2355.20;;;;;;5058830;28;20070;-77
2023/10/08 05:02:12;;;;;;;11.05;4.20;;;410.10;2355.20;;;;;;5057603;28;20017;-78
2023/10/08 05:04:47;;;;;;;7.90;3.80;;;410.20;2355.20;;;;;;5049933;28;20078;-80
2023/10/08 05:13:33;;;;;;;8.70;4.25;;;410.30;2355.20;;;;;;5033156;28;20084;-79
2023/10/08 05:16:06;;;;;;;8.40;4.20;;;410.30;2355.20;;;;;;5023705;28;20079;-80
2023/10/08 05:19:06;;;;;;;9.07;4.05;;;410.40;2355.20;;;;;;5029531;28;20116;-79
2023/10/08 05:21:51;;;;;;;9.05;3.95;;;410.40;2355.20;;;;;;5012689;28;20116;-82
2023/10/08 05:24:27;;;;;;;7.20;4.38;;;410.40;2355.20;;;;;;5012802;28;20030;-80
2023/10/08 05:27:09;;;;;;;8.45;4.53;;;;;;;;;;5028426;28;20112;-80
2023/10/08 05:30:15;;;;;;;9.73;4.50;;;435.30;2355.20;;;;;;5032389;28;20037;-80
2023/10/08 05:32:51;;;;;;;7.40;3.83;;;410.40;2355.20;;;;;;5031909;28;20107;-81
2023/10/08 05:38:16;;;;;;;7.05;3.97;;;410.40;2355.20;;;;;;5032889;28;20040;-79
2023/10/08 05:41:04;;;;;;;9.38;4.15;;;410.50;2355.20;;;;;;5035245;28;20033;-76
2023/10/08 06:13:16;;;;;;;7.53;3.60;;;461.70;2380.80;;;;;;5040355;28;20022;-86
2023/10/08 06:15:49;;;;;;;7.47;4.00;;;461.10;2380.80;;;;;;5036239;28;20030;-84
2023/10/08 06:18:17;;;;;;;7.47;3.88;;;460.80;2380.80;;;;;;5034153;28;20026;-80
2023/10/08 06:21:20;;;;;;;7.22;3.83;;;436.00;2355.20;;;;;;5033957;28;20064;-83
2023/10/08 06:23:47;;;;;;;7.28;3.63;;;435.80;2355.20;;;;;;5036896;28;20557;-82
2023/10/08 06:26:21;;;;;;;8.65;3.90;;;436.00;2355.20;;;;;;5033815;28;20113;-79
2023/10/08 06:28:46;;;;;;;8.25;4.30;;;435.80;2355.20;;;;;;5033620;28;20044;-78
2023/10/08 06:31:16;;;;;;;8.43;3.90;;;436.00;2355.20;;;;;;5033922;28;20041;-77
2023/10/08 06:33:43;;;;;;;7.80;3.63;;;460.80;2380.80;;;;;;5052869;28;20112;-79
2023/10/08 06:38:38;;;;;;;7.38;3.50;;;461.10;2380.80;;;;;;5057690;28;20482;-80
2023/10/08 06:41:33;;;;;;;7.03;3.72;;;461.00;2380.80;;;;;;5046082;28;20391;-82
2023/10/08 06:44:02;;;;;;;7.22;3.80;;;460.90;2380.80;;;;;;5037096;28;20117;-80
2023/10/08 06:46:32;;;;;;;7.55;3.83;;;461.00;2380.80;;;;;;5051108;28;20108;-81
2023/10/08 06:49:03;;;;;;;7.82;3.85;;;461.30;2380.80;;;;;;5057079;28;20041;-80
2023/10/08 06:51:30;;;;;;;7.82;4.07;;;512.80;2380.80;;;;;;5056638;28;20083;-79
2023/10/08 06:54:00;;;;;;;6.63;3.70;;;589.10;2432.00;;;;;;5057166;28;20017;-79
2023/10/08 06:56:25;;;;;;;9.65;3.90;;;640.40;1996.80;;;;;;5053514;28;20462;-80
2023/10/08 06:58:54;;;;;;;7.93;3.90;;;;;;;;;;5049106;28;20025;-83
2023/10/08 07:01:29;;;;;;;6.68;3.60;;;;;;;;;;5055865;28;20083;-83
2023/10/08 07:04:03;;;;;;;7.72;4.40;;;717.40;1664.00;;;;;;5057838;28;20025;-85
2023/10/08 07:06:33;;;;;;;8.53;4.00;;;;;;;;;;5056646;28;20131;-83
2023/10/08 07:09:04;;;;;;;7.78;4.05;;;717.10;1612.80;;;;;;5056783;28;20111;-82
2023/10/08 07:11:34;;;;;;;6.50;3.75;;;;;;;;;;5056967;28;20108;-84
2023/10/08 07:14:01;;;;;;;7.63;3.53;;;640.60;1817.60;;;;;;5056948;28;20021;-82
2023/10/08 07:16:28;;;;;;;6.43;3.72;;;614.90;1894.40;;;;;;5054624;28;20379;-85
2023/10/08 07:19:02;;;;;;;7.38;3.90;;;564.10;2073.60;;;;;;5058214;28;20025;-83
2023/10/08 07:21:29;;;;;;;9.07;4.22;;;563.20;2227.20;;;;;;5055960;28;20029;-85
2023/10/08 07:23:59;;;;;;;6.65;3.80;;;538.10;2406.40;;;;;;5055360;28;20024;-84
2023/10/08 07:26:26;;;;;;;6.93;3.40;;;537.90;2406.40;;;;;;5056733;28;20028;-83
2023/10/08 07:28:53;;;;;;;8.57;3.97;;;537.60;2406.40;;;;;;5056640;28;20021;-80
2023/10/08 07:31:21;;;;;;;8.27;3.63;;;512.50;2380.80;;;;;;5054891;28;20050;-80
2023/10/08 07:34:15;;;;;;;8.05;3.55;;;512.30;2380.80;;;;;;5056122;28;20115;-80
2023/10/08 07:36:41;;;;;;;;;;;512.10;2380.80;;;;;;5056160;28;20021;-79
2023/10/08 07:39:09;;;;;;;7.82;3.97;;;487.30;2380.80;;;;;;5055872;28;19909;-80
2023/10/08 07:41:35;;;;;;;8.57;3.80;;;486.90;2380.80;;;;;;5055994;28;20077;-84
2023/10/08 07:44:00;;;;;;;10.10;3.95;;;486.80;2380.80;;;;;;5050356;28;20115;-83
2023/10/08 07:46:26;;;;;;;7.47;4.25;;;486.70;2380.80;;;;;;5044413;28;20025;-80
2023/10/08 07:48:53;;;;;;;9.75;4.63;;;486.60;2380.80;;;;;;5054997;28;20020;-82
2023/10/08 07:51:23;;;;;;;8.20;4.22;;;486.60;2380.80;;;;;;5053644;28;20056;-80
2023/10/08 07:53:54;;;;;;;7.25;4.07;;;486.50;2380.80;;;;;;5054003;28;20021;-79
2023/10/08 07:56:20;;;;;;;7.70;3.72;;;486.40;2380.80;;;;;;5054823;28;20036;-83
2023/10/08 07:58:47;;;;;;;7.18;4.10;;;486.40;2380.80;;;;;;5055734;28;20021;-82
2023/10/08 08:01:14;;;;;;;8.45;3.83;;;486.40;2380.80;;;;;;5043411;28;20067;-80
2023/10/08 08:03:41;;;;;;;8.88;4.00;;;486.40;2380.80;;;;;;5045741;28;20058;-81
2023/10/08 08:06:08;;;;;;;9.38;3.72;;;486.40;2380.80;;;;;;5034080;28;20036;-76
2023/10/08 08:08:36;;;;;;;6.90;3.63;;;486.40;2380.80;;;;;;5035313;28;20025;-80
2023/10/08 08:11:26;;;;;;;6.95;3.65;;;486.50;2380.80;;;;;;5053777;28;20036;-78
2023/10/08 08:13:52;;;;;;;7.88;3.92;;;486.60;2380.80;;;;;;5055116;28;20036;-77
2023/10/08 08:16:19;;;;;;;7.13;4.20;;;486.60;2380.80;;;;;;5053834;28;20033;-78
2023/10/08 08:18:55;;;;;;;6.82;4.10;;;486.60;2380.80;;;;;;5055180;28;20475;-79
2023/10/08 08:21:23;;;;;;;6.35;3.90;;;486.70;2380.80;;;;;;5033708;28;20494;-79
2023/10/08 08:23:49;;;;;;;8.07;3.88;;;486.80;2380.80;;;;;;5035157;28;20026;-79
2023/10/08 08:26:27;;;;;;;7.85;3.83;;;486.90;2380.80;;;;;;5047557;28;20021;-78
2023/10/08 08:28:57;;;;;;;6.55;3.50;;;487.00;2380.80;;;;;;5055125;28;20021;-78
2023/10/08 08:31:27;;;;;;;8.07;4.15;;;487.30;2380.80;;;;;;5054469;28;20039;-79
2023/10/08 08:33:56;;;;;;;6.30;3.50;;;512.80;2380.80;;;;;;5051673;28;20481;-78
2023/10/08 08:36:22;;;;;;;6.85;3.92;;;538.40;2406.40;;;;;;5043526;28;20041;-78
2023/10/08 08:38:49;;;;;;;11.07;3.85;;;563.70;2432.00;;;;;;5043230;28;20467;-77
2023/10/08 08:41:18;;;;;;;7.80;3.92;;;589.00;2432.00;;;;;;5053991;28;20024;-78
2023/10/08 08:43:58;;;;;;;8.40;3.97;;;614.40;2406.40;;;;;;5050771;28;20030;-78
2023/10/08 08:46:37;;;;;;;6.00;3.42;;;614.40;2329.60;;;;;;5054336;28;20021;-77
2023/10/08 08:49:11;;;;;;;9.00;3.88;;;589.70;2304.00;;;;;;5053988;28;20078;-77
2023/10/08 08:51:38;;;;;;;7.20;3.95;;;614.60;2329.60;;;;;;5052689;28;20454;-80
2023/10/08 08:54:14;;;;;;;6.22;3.17;;;615.10;2227.20;;;;;;5054309;28;20363;-77
2023/10/08 08:56:43;;;;;;;6.88;3.53;;;615.00;2201.60;;;;;;5034496;28;20030;-78
2023/10/08 08:59:11;;;;;;;6.97;3.60;;;615.30;2176.00;;;;;;5048910;28;20495;-78
2023/10/08 09:01:38;;;;;;;5.72;3.20;;;615.00;2124.80;;;;;;5053768;28;20425;-78
2023/10/08 09:04:05;;;;;;;6.53;3.78;;;614.80;2150.40;;;;;;5050264;28;20131;-82
2023/10/08 09:06:39;;;;;;;6.97;3.50;;;614.80;2150.40;;;;;;5040136;28;20075;-80
2023/10/08 09:09:14;;;;;;;7.03;3.80;;;615.10;2150.40;;;;;;5040127;28;20428;-80
2023/10/08 09:11:43;;;;;;;6.38;3.25;;;640.10;2124.80;;;;;;5049794;28;20513;-79
2023/10/08 09:14:12;;;;;;;6.45;3.60;;;615.30;2099.20;;;;;;5052433;28;20891;-78
2023/10/08 09:16:37;;;;;;;5.75;2.92;;;615.20;2124.80;;;;;;5044412;28;20025;-79
2023/10/08 09:19:04;;;;;;;6.90;3.47;;;615.30;2099.20;;;;;;5053626;28;20028;-80
2023/10/08 09:21:30;;;;;;;7.93;3.85;;;640.90;2048.00;;;;;;5050143;28;20138;-76
2023/10/08 09:23:56;;;;;;;5.40;3.17;;;640.90;1996.80;;;;;;5050191;28;20051;-76
2023/10/08 09:26:28;;;;;;;6.18;3.60;;;;;;;;;;5046696;28;20032;-77
2023/10/08 09:28:55;;;;;;;6.00;3.55;;;;;;;;;;5052811;28;20067;-76
2023/10/08 09:31:23;;;;;;;6.18;3.70;;;;;;;;;;5044508;28;20128;-78
2023/10/08 09:33:56;;;;;;;5.47;3.30;;;;;;;;;;5048490;28;20021;-77
2023/10/08 09:36:31;;;;;;;6.63;3.60;;;691.30;1843.20;;;;;;5045235;28;20114;-77
2023/10/08 09:39:01;;;;;;;6.13;3.30;;;691.20;1843.20;;;;;;5051864;28;20436;-76
2023/10/08 09:41:30;;;;;;;6.82;3.65;;;666.40;1868.80;;;;;;5036920;28;20118;-77
2023/10/08 09:43:58;;;;;;;6.60;3.20;;;666.40;1894.40;;;;;;5040378;28;20032;-77
2023/10/08 09:46:31;;;;;;;7.13;3.60;;;691.70;1843.20;;;;;;5039589;28;20037;-77
2023/10/08 09:49:01;;;;;;;6.53;3.55;;;;;;;;;;5052416;28;20056;-78
2023/10/08 09:51:31;;;;;;;7.70;4.40;;;;;;;;;;5049907;28;20406;-76
2023/10/08 09:54:05;;;;;;;7.18;3.47;;;717.40;1766.40;;;;;;5052903;28;20036;-78
2023/10/08 09:56:34;;;;;;;7.18;3.50;;;717.10;1715.20;;;;;;5051603;28;20466;-77
2023/10/08 09:59:00;;;;;;;7.63;3.53;;;;;;;;;;5052636;28;20467;-78
2023/10/08 10:01:27;;;;;;;7.55;3.80;;;;;;;;;;5051811;28;20083;-77
2023/10/08 10:03:53;;;;;;;6.88;3.35;;;742.40;1689.60;;;;;;5052730;28;20013;-80
2023/10/08 10:06:19;;;;;;;6.00;3.17;;;717.60;1664.00;;;;;;5040107;28;20032;-79
2023/10/08 10:08:47;;;;;;;7.47;3.40;;;717.60;1664.00;;;;;;5045400;28;20447;-80
2023/10/08 10:11:13;;;;;;;6.85;3.28;;;717.60;1664.00;;;;;;5051701;28;20037;-79
2023/10/08 10:13:41;;;;;;;7.80;3.42;;;717.60;1664.00;;;;;;5055935;28;20036;-78
2023/10/08 10:16:07;;;;;;;6.55;3.00;;;;;;;;;;5056376;28;20151;-78
2023/10/08 10:18:34;;;;;;;6.00;3.13;;;;;;;;;;5050641;28;20040;-78
2023/10/08 10:21:02;;;;;;;10.68;3.20;;;;;;;;;;5055862;28;20031;-80
2023/10/08 10:23:36;;;;;;;6.75;3.30;;;;;;;;;;5049062;28;20372;-79
2023/10/08 10:26:03;;;;;;;7.13;3.03;;;;;;;;;;5056206;28;20226;-80
2023/10/08 10:28:30;;;;;;;8.10;3.05;;;;;;;;;;5054058;28;20048;-79
2023/10/08 10:30:56;;;;;;;5.72;2.92;;;;;;;;;;5053980;28;20045;-79
2023/10/08 10:33:33;;;;;;;8.55;3.65;;;;;;;;;;5053760;28;20111;-81
2023/10/08 10:36:04;;;;;;;9.35;3.20;;;;;;;;;;5045973;28;20107;-78
2023/10/08 10:38:30;;;;;;;8.10;3.30;;;794.10;1484.80;;;;;;5047572;28;20112;-78
2023/10/08 10:40:59;;;;;;;11.68;3.22;;;794.30;1433.60;;;;;;5054544;28;20482;-75
2023/10/08 10:43:32;;;;;;;8.55;2.90;;;794.20;1433.60;;;;;;5049629;28;20045;-77
2023/10/08 10:46:11;;;;;;;8.70;3.20;;;793.60;1408.00;;;;;;5055755;28;20037;-76
2023/10/08 10:48:48;;;;;;;8.88;3.10;;;793.90;1433.60;;;;;;5050185;28;20037;-77
2023/10/08 10:51:17;;;;;;;10.00;3.85;;;819.20;1408.00;;;;;;5042053;28;20406;-76
2023/10/08 10:54:07;;;;;;;8.40;3.40;;;819.50;1331.20;;;;;;5041581;28;20046;-76
2023/10/08 10:56:41;;;;;;;10.15;3.17;;;819.30;1356.80;;;;;;5055348;28;20053;-78
2023/10/08 10:59:22;;;;;;;9.73;2.92;;;819.20;1331.20;;;;;;5044908;28;20116;-78
2023/10/08 11:04:47;;;;;;;10.98;3.10;;;794.40;1254.40;;;;;;5044328;28;20541;-79
2023/10/08 11:07:23;;;;;;;11.13;5.07;;;794.40;1280.00;;;;;;5052761;28;20116;-80
2023/10/08 11:09:52;;;;;;;14.65;7.70;;;794.40;1280.00;;;;;;5033028;28;20568;-79
2023/10/08 11:12:22;;;;;;;14.25;7.00;;;819.40;1254.40;;;;;;5033363;28;20163;-78
2023/10/08 11:14:51;;;;;;;11.73;6.97;;;819.20;1254.40;;;;;;5033099;28;20537;-78
2023/10/08 11:17:26;;;;;;;13.88;4.90;;;794.50;1254.40;;;;;;5032760;28;20032;-78
2023/10/08 11:19:52;;;;;;;;;;;819.30;1228.80;;;;;;5033884;28;20029;-75
2023/10/08 11:22:22;;;;;;;16.98;9.70;;;794.40;1254.40;;;;;;5043324;28;19916;-75
2023/10/08 11:24:48;;;;;;;12.65;6.63;;;794.40;1254.40;;;;;;5052739;28;20025;-79
2023/10/08 11:27:17;;;;;;;16.48;8.52;;;819.40;1254.40;;;;;;5053568;28;20102;-79
2023/10/08 11:29:56;;;;;;;40.42;21.27;;;794.50;1228.80;;;;;;5065319;28;20052;-78
2023/10/08 11:32:25;;;;;;;23.73;8.93;;;819.30;1254.40;;;;;;5056650;28;20500;-81
2023/10/08 11:35:15;;;;;;;26.65;9.65;;;794.50;1228.80;;;;;;5065750;28;20041;-75
2023/10/08 11:37:50;;;;;;;9.57;2.67;;;819.30;1228.80;;;;;;5052879;28;20039;-81
2023/10/08 11:40:29;;;;;;;9.45;3.00;;;794.00;1254.40;;;;;;5050759;28;20072;-79
2023/10/08 11:43:03;;;;;;;8.73;2.15;;;794.00;1254.40;;;;;;5055666;28;20067;-80
2023/10/08 11:45:38;;;;;;;9.80;2.47;;;;;;;;;;5051198;28;20037;-81
2023/10/08 11:48:11;;;;;;;9.60;3.00;;;;;;;;;;5051877;28;20419;-78
2023/10/08 11:50:38;;;;;;;9.32;2.40;;;794.00;1331.20;;;;;;5053909;28;20049;-79
2023/10/08 11:53:08;;;;;;;9.00;2.58;;;793.60;1305.60;;;;;;5053435;28;20075;-80
2023/10/08 11:55:35;;;;;;;10.95;2.47;;;793.70;1280.00;;;;;;5054458;28;20091;-81
2023/10/08 11:58:11;;;;;;;7.20;2.03;;;793.80;1280.00;;;;;;5055045;28;20025;-80
2023/10/08 12:00:45;;;;;;;8.55;3.00;;;793.90;1280.00;;;;;;5053184;28;20087;-81
2023/10/08 12:03:12;;;;;;;7.18;2.30;;;794.10;1280.00;;;;;;5047469;28;20041;-76
2023/10/08 12:05:47;;;;;;;7.38;2.28;;;794.00;1280.00;;;;;;5050345;28;20043;-78
2023/10/08 12:08:16;;;;;;;9.02;2.55;;;794.10;1254.40;;;;;;5055031;28;20025;-77
2023/10/08 12:10:53;;;;;;;8.20;2.40;;;794.00;1280.00;;;;;;5034223;28;20084;-78
2023/10/08 12:13:24;;;;;;;8.23;2.25;;;793.70;1280.00;;;;;;5047311;28;20021;-76
2023/10/08 12:15:52;;;;;;;9.48;2.70;;;768.70;1254.40;;;;;;5053075;28;20045;-76
2023/10/08 12:18:26;;;;;;;11.98;2.70;;;794.00;1305.60;;;;;;5053890;28;20013;-77
2023/10/08 12:20:53;;;;;;;7.60;2.30;;;794.10;1280.00;;;;;;5051833;28;20040;-80
2023/10/08 12:23:26;;;;;;;8.88;2.50;;;793.90;1254.40;;;;;;5053493;28;20645;-76
2023/10/08 12:25:55;;;;;;;8.77;2.28;;;793.90;1280.00;;;;;;5053907;28;20044;-77
2023/10/08 12:28:25;;;;;;;8.55;2.63;;;793.60;1280.00;;;;;;5051838;28;20360;-77
2023/10/08 12:30:55;;;;;;;12.38;2.45;;;793.80;1280.00;;;;;;5048632;28;20045;-78
2023/10/08 12:33:25;;;;;;;9.57;2.40;;;768.90;1254.40;;;;;;5046018;28;20106;-77
2023/10/08 12:35:55;;;;;;;11.02;2.58;;;793.70;1280.00;;;;;;5049476;28;20390;-76
2023/10/08 12:38:22;;;;;;;10.90;2.30;;;793.80;1280.00;;;;;;5047766;28;20444;-77
2023/10/08 12:40:52;;;;;;;7.53;2.25;;;793.70;1254.40;;;;;;5053031;28;20072;-77
2023/10/08 12:43:19;;;;;;;9.98;2.40;;;793.70;1280.00;;;;;;5053644;28;20135;-79
2023/10/08 12:45:51;;;;;;;8.63;2.45;;;793.90;1254.40;;;;;;5054819;28;20033;-80
2023/10/08 12:48:19;;;;;;;11.48;2.53;;;793.90;1254.40;;;;;;5055424;28;20017;-79
2023/10/08 12:50:44;;;;;;;7.32;1.88;;;794.00;1254.40;;;;;;5078775;28;20049;-79
2023/10/08 12:53:11;;;;;;;10.30;2.40;;;793.90;1280.00;;;;;;5053176;28;20497;-77
2023/10/08 12:55:40;;;;;;;8.80;2.25;;;794.00;1254.40;;;;;;5053642;28;20040;-77
2023/10/08 12:58:09;;;;;;;9.02;2.10;;;793.60;1254.40;;;;;;5048485;28;20024;-80
2023/10/08 13:00:38;;;;;;;10.93;2.40;;;768.80;1254.40;;;;;;5053137;28;20500;-76
2023/10/08 13:03:22;;;;;;;10.02;2.47;;;793.70;1280.00;;;;;;5046055;28;20032;-78
2023/10/08 13:05:52;;;;;;;10.57;2.33;;;793.60;1280.00;;;;;;5052764;28;20040;-79
2023/10/08 13:08:19;;;;;;;10.52;2.80;;;;;;;;;;5051697;28;20482;-77
2023/10/08 13:10:46;;;;;;;7.45;2.30;;;768.50;1305.60;;;;;;5048805;28;20056;-81
2023/10/08 13:13:12;;;;;;;7.82;2.13;;;743.20;1280.00;;;;;;5045849;28;20041;-82
2023/10/08 13:15:39;;;;;;;9.60;2.22;;;742.90;1331.20;;;;;;5049300;28;20142;-79
2023/10/08 13:18:05;;;;;;;8.02;2.65;;;742.70;1382.40;;;;;;5053157;28;20040;-79
2023/10/08 13:20:34;;;;;;;12.40;3.28;;;742.50;1382.40;;;;;;5054788;28;20067;-81
2023/10/08 13:23:04;;;;;;;12.02;2.70;;;717.70;1356.80;;;;;;5053994;28;20025;-82
2023/10/08 13:25:33;;;;;;;9.20;2.20;;;717.40;1356.80;;;;;;5052062;28;20040;-80
2023/10/08 13:28:00;;;;;;;9.35;2.40;;;717.10;1382.40;;;;;;5052246;28;20132;-83
2023/10/08 13:30:27;;;;;;;8.27;2.40;;;716.90;1408.00;;;;;;5052424;28;20031;-84
2023/10/08 13:32:53;;;;;;;10.82;3.13;;;692.10;1382.40;;;;;;5042992;28;20043;-80
2023/10/08 13:35:19;;;;;;;9.75;2.80;;;691.90;1433.60;;;;;;5050549;28;20048;-83
2023/10/08 13:38:09;;;;;;;13.93;2.97;;;691.80;1433.60;;;;;;5054516;28;20378;-84
2023/10/08 13:40:39;;;;;;;9.15;2.08;;;691.70;1433.60;;;;;;5048819;28;20029;-82
2023/10/08 13:43:06;;;;;;;6.40;2.25;;;691.60;1433.60;;;;;;5052556;28;20102;-83
2023/10/08 13:45:37;;;;;;;9.82;2.63;;;691.40;1459.20;;;;;;5053944;28;20040;-82
2023/10/08 13:48:05;;;;;;;13.10;2.83;;;691.30;1484.80;;;;;;5055263;28;20534;-80
2023/10/08 13:50:31;;;;;;;8.20;2.85;;;691.20;1484.80;;;;;;5054895;28;20063;-85